sensor_id;sensor_type;location;lat;lon;timestamp;P1;durP1;ratioP1;P2;durP2;ratioP2
58071;SDS011;60383;46.626;18.866;2023-12-14T00:00:17;8.82;;;5.35;;
58071;SDS011;60383;46.626;18.866;2023-12-14T00:02:43;7.13;;;4.70;;
58071;SDS011;60383;46.626;18.866;2023-12-14T00:05:08;6.75;;;4.60;;
58071;SDS011;60383;46.626;18.866;2023-12-14T00:07:34;6.63;;;4.55;;
58071;SDS011;60383;46.626;18.866;2023-12-14T00:09:59;7.07;;;4.78;;
58071;SDS011;60383;46.626;18.866;2023-12-14T00:12:25;5.78;;;4.22;;
58071;SDS011;60383;46.626;18.866;2023-12-14T00:14:50;6.85;;;4.78;;
58071;SDS011;60383;46.626;18.866;2023-12-14T00:17:16;6.22;;;4.60;;
58071;SDS011;60383;46.626;18.866;2023-12-14T00:19:41;5.88;;;4.45;;
58071;SDS011;60383;46.626;18.866;2023-12-14T00:22:07;6.30;;;4.53;;
58071;SDS011;60383;46.626;18.866;2023-12-14T00:24:33;5.13;;;4.20;;
58071;SDS011;60383;46.626;18.866;2023-12-14T00:26:58;5.35;;;4.53;;
58071;SDS011;60383;46.626;18.866;2023-12-14T00:29:24;5.78;;;4.60;;
58071;SDS011;60383;46.626;18.866;2023-12-14T00:31:49;6.40;;;4.57;;
58071;SDS011;60383;46.626;18.866;2023-12-14T00:34:15;5.18;;;4.22;;
58071;SDS011;60383;46.626;18.866;2023-12-14T00:36:40;5.80;;;4.45;;
58071;SDS011;60383;46.626;18.866;2023-12-14T00:39:05;6.32;;;4.90;;
58071;SDS011;60383;46.626;18.866;2023-12-14T00:41:31;6.00;;;4.60;;
58071;SDS011;60383;46.626;18.866;2023-12-14T00:43:56;5.53;;;4.38;;
58071;SDS011;60383;46.626;18.866;2023-12-14T00:46:22;5.88;;;4.20;;
58071;SDS011;60383;46.626;18.866;2023-12-14T00:48:47;5.65;;;4.22;;
58071;SDS011;60383;46.626;18.866;2023-12-14T00:51:13;5.40;;;4.10;;
58071;SDS011;60383;46.626;18.866;2023-12-14T00:53:38;5.60;;;4.53;;
58071;SDS011;60383;46.626;18.866;2023-12-14T00:56:03;6.93;;;4.30;;
58071;SDS011;60383;46.626;18.866;2023-12-14T00:58:29;6.47;;;4.75;;
58071;SDS011;60383;46.626;18.866;2023-12-14T01:00:54;5.45;;;4.30;;
58071;SDS011;60383;46.626;18.866;2023-12-14T01:03:20;6.32;;;4.85;;
58071;SDS011;60383;46.626;18.866;2023-12-14T01:05:46;4.97;;;4.00;;
58071;SDS011;60383;46.626;18.866;2023-12-14T01:08:11;5.93;;;4.75;;
58071;SDS011;60383;46.626;18.866;2023-12-14T01:10:37;6.13;;;4.70;;
58071;SDS011;60383;46.626;18.866;2023-12-14T01:13:02;6.82;;;5.00;;
58071;SDS011;60383;46.626;18.866;2023-12-14T01:15:28;6.80;;;4.97;;
58071;SDS011;60383;46.626;18.866;2023-12-14T01:17:54;8.02;;;5.22;;
58071;SDS011;60383;46.626;18.866;2023-12-14T01:20:19;7.65;;;5.03;;
58071;SDS011;60383;46.626;18.866;2023-12-14T01:22:44;7.05;;;5.00;;
58071;SDS011;60383;46.626;18.866;2023-12-14T01:25:10;6.57;;;4.63;;
58071;SDS011;60383;46.626;18.866;2023-12-14T01:27:35;6.43;;;4.57;;
58071;SDS011;60383;46.626;18.866;2023-12-14T01:30:01;7.30;;;4.97;;
58071;SDS011;60383;46.626;18.866;2023-12-14T01:32:26;6.72;;;4.72;;
58071;SDS011;60383;46.626;18.866;2023-12-14T01:34:52;5.93;;;4.47;;
58071;SDS011;60383;46.626;18.866;2023-12-14T01:37:17;7.13;;;4.97;;
58071;SDS011;60383;46.626;18.866;2023-12-14T01:39:43;6.60;;;4.68;;
58071;SDS011;60383;46.626;18.866;2023-12-14T01:42:08;7.65;;;4.88;;
58071;SDS011;60383;46.626;18.866;2023-12-14T01:44:33;6.57;;;4.82;;
58071;SDS011;60383;46.626;18.866;2023-12-14T01:46:59;7.03;;;4.97;;
58071;SDS011;60383;46.626;18.866;2023-12-14T01:49:24;5.57;;;4.38;;
58071;SDS011;60383;46.626;18.866;2023-12-14T01:51:50;7.57;;;4.25;;
58071;SDS011;60383;46.626;18.866;2023-12-14T01:54:15;5.88;;;4.32;;
58071;SDS011;60383;46.626;18.866;2023-12-14T01:56:41;5.78;;;4.47;;
58071;SDS011;60383;46.626;18.866;2023-12-14T01:59:06;6.28;;;4.90;;
58071;SDS011;60383;46.626;18.866;2023-12-14T02:01:40;6.05;;;4.53;;
58071;SDS011;60383;46.626;18.866;2023-12-14T02:04:06;7.57;;;5.25;;
58071;SDS011;60383;46.626;18.866;2023-12-14T02:06:32;6.43;;;4.40;;
58071;SDS011;60383;46.626;18.866;2023-12-14T02:08:58;6.05;;;4.47;;
58071;SDS011;60383;46.626;18.866;2023-12-14T02:11:23;6.68;;;4.53;;
58071;SDS011;60383;46.626;18.866;2023-12-14T02:13:48;6.97;;;5.13;;
58071;SDS011;60383;46.626;18.866;2023-12-14T02:16:14;6.90;;;4.93;;
58071;SDS011;60383;46.626;18.866;2023-12-14T02:18:40;7.70;;;4.82;;
58071;SDS011;60383;46.626;18.866;2023-12-14T02:21:05;6.32;;;4.63;;
58071;SDS011;60383;46.626;18.866;2023-12-14T02:23:31;6.20;;;4.40;;
58071;SDS011;60383;46.626;18.866;2023-12-14T02:25:56;6.82;;;4.75;;
58071;SDS011;60383;46.626;18.866;2023-12-14T02:28:22;6.95;;;4.50;;
58071;SDS011;60383;46.626;18.866;2023-12-14T02:30:48;6.05;;;4.47;;
58071;SDS011;60383;46.626;18.866;2023-12-14T02:33:13;6.13;;;4.30;;
58071;SDS011;60383;46.626;18.866;2023-12-14T02:35:39;6.70;;;4.90;;
58071;SDS011;60383;46.626;18.866;2023-12-14T02:38:05;7.43;;;4.72;;
58071;SDS011;60383;46.626;18.866;2023-12-14T02:40:31;6.65;;;4.95;;
58071;SDS011;60383;46.626;18.866;2023-12-14T02:42:56;7.18;;;4.93;;
58071;SDS011;60383;46.626;18.866;2023-12-14T02:45:21;8.20;;;5.40;;
58071;SDS011;60383;46.626;18.866;2023-12-14T02:47:47;8.32;;;5.53;;
58071;SDS011;60383;46.626;18.866;2023-12-14T02:50:14;8.60;;;5.97;;
58071;SDS011;60383;46.626;18.866;2023-12-14T02:52:40;7.70;;;5.53;;
58071;SDS011;60383;46.626;18.866;2023-12-14T02:55:06;7.82;;;5.60;;
58071;SDS011;60383;46.626;18.866;2023-12-14T02:57:31;8.02;;;5.40;;
58071;SDS011;60383;46.626;18.866;2023-12-14T02:59:57;10.38;;;6.03;;
58071;SDS011;60383;46.626;18.866;2023-12-14T03:02:22;8.00;;;5.65;;
58071;SDS011;60383;46.626;18.866;2023-12-14T03:04:48;8.60;;;5.57;;
58071;SDS011;60383;46.626;18.866;2023-12-14T03:07:13;9.20;;;6.35;;
58071;SDS011;60383;46.626;18.866;2023-12-14T03:09:39;8.95;;;6.15;;
58071;SDS011;60383;46.626;18.866;2023-12-14T03:12:09;10.18;;;6.32;;
58071;SDS011;60383;46.626;18.866;2023-12-14T03:14:35;10.77;;;6.28;;
58071;SDS011;60383;46.626;18.866;2023-12-14T03:17:01;10.65;;;6.78;;
58071;SDS011;60383;46.626;18.866;2023-12-14T03:19:27;12.32;;;6.05;;
58071;SDS011;60383;46.626;18.866;2023-12-14T03:21:53;10.85;;;6.78;;
58071;SDS011;60383;46.626;18.866;2023-12-14T03:24:19;9.70;;;6.38;;
58071;SDS011;60383;46.626;18.866;2023-12-14T03:26:45;9.88;;;5.88;;
58071;SDS011;60383;46.626;18.866;2023-12-14T03:29:10;9.93;;;6.47;;
58071;SDS011;60383;46.626;18.866;2023-12-14T03:31:36;10.00;;;6.20;;
58071;SDS011;60383;46.626;18.866;2023-12-14T03:34:01;10.13;;;6.75;;
58071;SDS011;60383;46.626;18.866;2023-12-14T03:36:27;9.85;;;6.28;;
58071;SDS011;60383;46.626;18.866;2023-12-14T03:38:53;9.35;;;6.55;;
58071;SDS011;60383;46.626;18.866;2023-12-14T03:41:19;10.50;;;6.45;;
58071;SDS011;60383;46.626;18.866;2023-12-14T03:43:44;10.90;;;7.25;;
58071;SDS011;60383;46.626;18.866;2023-12-14T03:46:10;9.13;;;6.75;;
58071;SDS011;60383;46.626;18.866;2023-12-14T03:48:36;10.52;;;6.20;;
58071;SDS011;60383;46.626;18.866;2023-12-14T03:51:02;10.07;;;6.93;;
58071;SDS011;60383;46.626;18.866;2023-12-14T03:53:28;9.30;;;6.10;;
58071;SDS011;60383;46.626;18.866;2023-12-14T03:55:54;9.55;;;6.57;;
58071;SDS011;60383;46.626;18.866;2023-12-14T03:58:19;10.70;;;6.88;;
58071;SDS011;60383;46.626;18.866;2023-12-14T04:00:45;9.55;;;6.68;;
58071;SDS011;60383;46.626;18.866;2023-12-14T04:03:10;10.25;;;6.68;;
58071;SDS011;60383;46.626;18.866;2023-12-14T04:05:36;8.82;;;6.65;;
58071;SDS011;60383;46.626;18.866;2023-12-14T04:08:01;12.15;;;7.13;;
58071;SDS011;60383;46.626;18.866;2023-12-14T04:10:27;9.10;;;6.43;;
58071;SDS011;60383;46.626;18.866;2023-12-14T04:12:52;10.05;;;7.32;;
58071;SDS011;60383;46.626;18.866;2023-12-14T04:15:18;10.30;;;7.45;;
58071;SDS011;60383;46.626;18.866;2023-12-14T04:17:43;12.35;;;7.10;;
58071;SDS011;60383;46.626;18.866;2023-12-14T04:20:09;14.70;;;8.98;;
58071;SDS011;60383;46.626;18.866;2023-12-14T04:22:35;15.68;;;10.10;;
58071;SDS011;60383;46.626;18.866;2023-12-14T04:25:00;15.07;;;10.00;;
58071;SDS011;60383;46.626;18.866;2023-12-14T04:27:26;16.67;;;9.60;;
58071;SDS011;60383;46.626;18.866;2023-12-14T04:29:54;16.73;;;10.23;;
58071;SDS011;60383;46.626;18.866;2023-12-14T04:32:19;15.05;;;9.20;;
58071;SDS011;60383;46.626;18.866;2023-12-14T04:34:45;14.48;;;9.40;;
58071;SDS011;60383;46.626;18.866;2023-12-14T04:37:10;12.52;;;8.38;;
58071;SDS011;60383;46.626;18.866;2023-12-14T04:39:35;13.90;;;7.75;;
58071;SDS011;60383;46.626;18.866;2023-12-14T04:42:01;11.10;;;7.22;;
58071;SDS011;60383;46.626;18.866;2023-12-14T04:44:26;8.98;;;6.75;;
58071;SDS011;60383;46.626;18.866;2023-12-14T04:46:52;10.10;;;6.90;;
58071;SDS011;60383;46.626;18.866;2023-12-14T04:49:18;11.07;;;7.60;;
58071;SDS011;60383;46.626;18.866;2023-12-14T04:51:44;11.43;;;7.93;;
58071;SDS011;60383;46.626;18.866;2023-12-14T04:54:10;11.32;;;8.60;;
58071;SDS011;60383;46.626;18.866;2023-12-14T04:56:35;9.70;;;7.45;;
58071;SDS011;60383;46.626;18.866;2023-12-14T04:59:00;12.15;;;7.57;;
58071;SDS011;60383;46.626;18.866;2023-12-14T05:01:26;12.25;;;8.10;;
58071;SDS011;60383;46.626;18.866;2023-12-14T05:03:52;10.45;;;7.20;;
58071;SDS011;60383;46.626;18.866;2023-12-14T05:06:18;10.48;;;7.43;;
58071;SDS011;60383;46.626;18.866;2023-12-14T05:08:43;10.43;;;7.78;;
58071;SDS011;60383;46.626;18.866;2023-12-14T05:11:09;9.57;;;6.85;;
58071;SDS011;60383;46.626;18.866;2023-12-14T05:13:34;10.98;;;7.15;;
58071;SDS011;60383;46.626;18.866;2023-12-14T05:16:00;10.38;;;7.22;;
58071;SDS011;60383;46.626;18.866;2023-12-14T05:18:26;10.90;;;7.82;;
58071;SDS011;60383;46.626;18.866;2023-12-14T05:20:52;11.73;;;7.93;;
58071;SDS011;60383;46.626;18.866;2023-12-14T05:23:17;9.90;;;6.97;;
58071;SDS011;60383;46.626;18.866;2023-12-14T05:25:43;9.85;;;7.30;;
58071;SDS011;60383;46.626;18.866;2023-12-14T05:28:09;10.90;;;7.35;;
58071;SDS011;60383;46.626;18.866;2023-12-14T05:30:35;8.70;;;6.43;;
58071;SDS011;60383;46.626;18.866;2023-12-14T05:33:00;10.93;;;7.65;;
58071;SDS011;60383;46.626;18.866;2023-12-14T05:35:26;12.70;;;8.68;;
58071;SDS011;60383;46.626;18.866;2023-12-14T05:37:52;10.48;;;7.75;;
58071;SDS011;60383;46.626;18.866;2023-12-14T05:40:17;10.23;;;8.00;;
58071;SDS011;60383;46.626;18.866;2023-12-14T05:42:43;11.45;;;7.82;;
58071;SDS011;60383;46.626;18.866;2023-12-14T05:45:08;12.27;;;7.70;;
58071;SDS011;60383;46.626;18.866;2023-12-14T05:47:34;11.32;;;7.78;;
58071;SDS011;60383;46.626;18.866;2023-12-14T05:50:00;10.35;;;7.70;;
58071;SDS011;60383;46.626;18.866;2023-12-14T05:52:26;11.50;;;8.00;;
58071;SDS011;60383;46.626;18.866;2023-12-14T05:54:51;11.52;;;7.28;;
58071;SDS011;60383;46.626;18.866;2023-12-14T05:57:17;10.70;;;7.90;;
58071;SDS011;60383;46.626;18.866;2023-12-14T05:59:42;11.23;;;8.00;;
58071;SDS011;60383;46.626;18.866;2023-12-14T06:02:08;10.23;;;7.15;;
58071;SDS011;60383;46.626;18.866;2023-12-14T06:04:34;9.93;;;7.10;;
58071;SDS011;60383;46.626;18.866;2023-12-14T06:06:59;9.05;;;7.10;;
58071;SDS011;60383;46.626;18.866;2023-12-14T06:09:25;10.88;;;8.18;;
58071;SDS011;60383;46.626;18.866;2023-12-14T06:12:03;12.60;;;8.38;;
58071;SDS011;60383;46.626;18.866;2023-12-14T06:14:30;10.93;;;8.13;;
58071;SDS011;60383;46.626;18.866;2023-12-14T06:16:55;10.45;;;8.00;;
58071;SDS011;60383;46.626;18.866;2023-12-14T06:19:21;10.65;;;7.80;;
58071;SDS011;60383;46.626;18.866;2023-12-14T06:21:47;10.50;;;7.57;;
58071;SDS011;60383;46.626;18.866;2023-12-14T06:24:13;11.98;;;8.02;;
58071;SDS011;60383;46.626;18.866;2023-12-14T06:26:42;14.23;;;8.68;;
58071;SDS011;60383;46.626;18.866;2023-12-14T06:29:08;10.88;;;8.20;;
58071;SDS011;60383;46.626;18.866;2023-12-14T06:31:40;11.20;;;8.20;;
58071;SDS011;60383;46.626;18.866;2023-12-14T06:34:05;13.02;;;8.50;;
58071;SDS011;60383;46.626;18.866;2023-12-14T06:36:31;10.68;;;7.65;;
58071;SDS011;60383;46.626;18.866;2023-12-14T06:38:58;12.02;;;8.38;;
58071;SDS011;60383;46.626;18.866;2023-12-14T06:41:24;11.88;;;8.77;;
58071;SDS011;60383;46.626;18.866;2023-12-14T06:43:51;11.10;;;8.38;;
58071;SDS011;60383;46.626;18.866;2023-12-14T06:46:17;11.48;;;8.55;;
58071;SDS011;60383;46.626;18.866;2023-12-14T06:48:43;12.63;;;8.70;;
58071;SDS011;60383;46.626;18.866;2023-12-14T06:51:09;13.30;;;8.57;;
58071;SDS011;60383;46.626;18.866;2023-12-14T06:53:34;13.88;;;9.30;;
58071;SDS011;60383;46.626;18.866;2023-12-14T06:56:02;12.90;;;8.48;;
58071;SDS011;60383;46.626;18.866;2023-12-14T06:58:28;14.48;;;8.95;;
58071;SDS011;60383;46.626;18.866;2023-12-14T07:00:54;11.70;;;9.20;;
58071;SDS011;60383;46.626;18.866;2023-12-14T07:03:19;13.48;;;9.20;;
58071;SDS011;60383;46.626;18.866;2023-12-14T07:05:44;13.05;;;9.25;;
58071;SDS011;60383;46.626;18.866;2023-12-14T07:08:10;15.18;;;9.98;;
58071;SDS011;60383;46.626;18.866;2023-12-14T07:10:35;14.45;;;9.98;;
58071;SDS011;60383;46.626;18.866;2023-12-14T07:13:01;14.75;;;9.45;;
58071;SDS011;60383;46.626;18.866;2023-12-14T07:15:26;14.25;;;10.18;;
58071;SDS011;60383;46.626;18.866;2023-12-14T07:17:52;16.60;;;10.80;;
58071;SDS011;60383;46.626;18.866;2023-12-14T07:20:17;17.58;;;11.65;;
58071;SDS011;60383;46.626;18.866;2023-12-14T07:22:42;16.83;;;11.05;;
58071;SDS011;60383;46.626;18.866;2023-12-14T07:25:08;15.85;;;10.27;;
58071;SDS011;60383;46.626;18.866;2023-12-14T07:27:34;13.82;;;10.13;;
58071;SDS011;60383;46.626;18.866;2023-12-14T07:29:59;13.85;;;10.13;;
58071;SDS011;60383;46.626;18.866;2023-12-14T07:32:25;14.55;;;9.23;;
58071;SDS011;60383;46.626;18.866;2023-12-14T07:34:50;15.68;;;10.90;;
58071;SDS011;60383;46.626;18.866;2023-12-14T07:37:16;16.52;;;10.63;;
58071;SDS011;60383;46.626;18.866;2023-12-14T07:39:41;15.25;;;10.32;;
58071;SDS011;60383;46.626;18.866;2023-12-14T07:42:07;16.27;;;10.52;;
58071;SDS011;60383;46.626;18.866;2023-12-14T07:44:32;16.38;;;10.50;;
58071;SDS011;60383;46.626;18.866;2023-12-14T07:47:01;17.85;;;11.40;;
58071;SDS011;60383;46.626;18.866;2023-12-14T07:49:27;13.90;;;10.25;;
58071;SDS011;60383;46.626;18.866;2023-12-14T07:51:52;15.05;;;10.40;;
58071;SDS011;60383;46.626;18.866;2023-12-14T07:54:18;18.92;;;10.90;;
58071;SDS011;60383;46.626;18.866;2023-12-14T07:56:44;15.10;;;10.55;;
58071;SDS011;60383;46.626;18.866;2023-12-14T07:59:09;18.15;;;11.15;;
58071;SDS011;60383;46.626;18.866;2023-12-14T08:01:36;18.33;;;12.57;;
58071;SDS011;60383;46.626;18.866;2023-12-14T08:04:02;17.23;;;11.18;;
58071;SDS011;60383;46.626;18.866;2023-12-14T08:06:28;19.40;;;12.05;;
58071;SDS011;60383;46.626;18.866;2023-12-14T08:08:54;17.30;;;11.40;;
58071;SDS011;60383;46.626;18.866;2023-12-14T08:11:22;17.55;;;11.60;;
58071;SDS011;60383;46.626;18.866;2023-12-14T08:13:48;19.20;;;12.45;;
58071;SDS011;60383;46.626;18.866;2023-12-14T08:16:14;17.60;;;11.55;;
58071;SDS011;60383;46.626;18.866;2023-12-14T08:18:40;18.60;;;12.07;;
58071;SDS011;60383;46.626;18.866;2023-12-14T08:21:07;20.30;;;12.23;;
58071;SDS011;60383;46.626;18.866;2023-12-14T08:23:32;22.15;;;13.10;;
58071;SDS011;60383;46.626;18.866;2023-12-14T08:25:58;18.65;;;11.88;;
58071;SDS011;60383;46.626;18.866;2023-12-14T08:28:24;18.85;;;11.85;;
58071;SDS011;60383;46.626;18.866;2023-12-14T08:30:50;19.58;;;12.55;;
58071;SDS011;60383;46.626;18.866;2023-12-14T08:33:16;17.83;;;10.88;;
58071;SDS011;60383;46.626;18.866;2023-12-14T08:35:41;16.38;;;10.85;;
58071;SDS011;60383;46.626;18.866;2023-12-14T08:38:07;19.60;;;11.68;;
58071;SDS011;60383;46.626;18.866;2023-12-14T08:40:32;19.83;;;12.43;;
58071;SDS011;60383;46.626;18.866;2023-12-14T08:42:58;16.60;;;11.48;;
58071;SDS011;60383;46.626;18.866;2023-12-14T08:45:24;18.00;;;11.18;;
58071;SDS011;60383;46.626;18.866;2023-12-14T08:47:49;17.13;;;10.90;;
58071;SDS011;60383;46.626;18.866;2023-12-14T08:50:15;20.05;;;12.02;;
58071;SDS011;60383;46.626;18.866;2023-12-14T08:52:40;17.00;;;12.57;;
58071;SDS011;60383;46.626;18.866;2023-12-14T08:55:07;17.88;;;11.90;;
58071;SDS011;60383;46.626;18.866;2023-12-14T08:57:34;19.27;;;12.32;;
58071;SDS011;60383;46.626;18.866;2023-12-14T09:00:00;15.32;;;10.27;;
58071;SDS011;60383;46.626;18.866;2023-12-14T09:02:26;14.48;;;9.35;;
58071;SDS011;60383;46.626;18.866;2023-12-14T09:04:51;18.88;;;12.85;;
58071;SDS011;60383;46.626;18.866;2023-12-14T09:07:17;20.00;;;11.65;;
58071;SDS011;60383;46.626;18.866;2023-12-14T09:09:43;16.13;;;10.57;;
58071;SDS011;60383;46.626;18.866;2023-12-14T09:12:08;18.10;;;11.57;;
58071;SDS011;60383;46.626;18.866;2023-12-14T09:14:34;19.42;;;11.85;;
58071;SDS011;60383;46.626;18.866;2023-12-14T09:17:00;19.50;;;13.27;;
58071;SDS011;60383;46.626;18.866;2023-12-14T09:19:25;20.13;;;12.50;;
58071;SDS011;60383;46.626;18.866;2023-12-14T09:21:51;18.42;;;11.77;;
58071;SDS011;60383;46.626;18.866;2023-12-14T09:24:16;19.27;;;12.50;;
58071;SDS011;60383;46.626;18.866;2023-12-14T09:26:42;20.90;;;12.68;;
58071;SDS011;60383;46.626;18.866;2023-12-14T09:29:08;18.33;;;11.73;;
58071;SDS011;60383;46.626;18.866;2023-12-14T09:31:33;16.23;;;10.85;;
58071;SDS011;60383;46.626;18.866;2023-12-14T09:33:59;17.08;;;11.07;;
58071;SDS011;60383;46.626;18.866;2023-12-14T09:36:24;20.90;;;12.77;;
58071;SDS011;60383;46.626;18.866;2023-12-14T09:38:50;18.70;;;11.45;;
58071;SDS011;60383;46.626;18.866;2023-12-14T09:41:15;13.48;;;9.77;;
58071;SDS011;60383;46.626;18.866;2023-12-14T09:43:41;12.70;;;8.73;;
58071;SDS011;60383;46.626;18.866;2023-12-14T09:46:07;16.00;;;10.10;;
58071;SDS011;60383;46.626;18.866;2023-12-14T09:48:33;15.65;;;10.32;;
58071;SDS011;60383;46.626;18.866;2023-12-14T09:50:59;13.45;;;8.65;;
58071;SDS011;60383;46.626;18.866;2023-12-14T09:53:25;15.23;;;9.43;;
58071;SDS011;60383;46.626;18.866;2023-12-14T09:55:50;14.95;;;8.93;;
58071;SDS011;60383;46.626;18.866;2023-12-14T09:58:16;16.17;;;9.90;;
58071;SDS011;60383;46.626;18.866;2023-12-14T10:00:41;14.40;;;10.48;;
58071;SDS011;60383;46.626;18.866;2023-12-14T10:03:41;14.82;;;10.18;;
58071;SDS011;60383;46.626;18.866;2023-12-14T10:05:59;14.45;;;10.10;;
58071;SDS011;60383;46.626;18.866;2023-12-14T10:08:26;15.38;;;10.13;;
58071;SDS011;60383;46.626;18.866;2023-12-14T10:10:53;15.82;;;9.95;;
58071;SDS011;60383;46.626;18.866;2023-12-14T10:13:21;17.45;;;10.73;;
58071;SDS011;60383;46.626;18.866;2023-12-14T10:16:00;15.55;;;9.95;;
58071;SDS011;60383;46.626;18.866;2023-12-14T10:18:26;12.48;;;9.50;;
58071;SDS011;60383;46.626;18.866;2023-12-14T10:20:51;14.50;;;10.20;;
58071;SDS011;60383;46.626;18.866;2023-12-14T10:23:18;14.95;;;10.02;;
58071;SDS011;60383;46.626;18.866;2023-12-14T10:25:44;15.30;;;10.52;;
58071;SDS011;60383;46.626;18.866;2023-12-14T10:28:13;17.67;;;11.02;;
58071;SDS011;60383;46.626;18.866;2023-12-14T10:30:39;15.15;;;10.05;;
58071;SDS011;60383;46.626;18.866;2023-12-14T10:33:05;16.80;;;10.73;;
58071;SDS011;60383;46.626;18.866;2023-12-14T10:35:31;13.00;;;9.15;;
58071;SDS011;60383;46.626;18.866;2023-12-14T10:37:58;17.83;;;11.80;;
58071;SDS011;60383;46.626;18.866;2023-12-14T10:40:28;14.00;;;9.48;;
58071;SDS011;60383;46.626;18.866;2023-12-14T10:42:54;15.35;;;9.93;;
58071;SDS011;60383;46.626;18.866;2023-12-14T10:45:24;12.27;;;8.65;;
58071;SDS011;60383;46.626;18.866;2023-12-14T10:47:55;12.45;;;8.18;;
58071;SDS011;60383;46.626;18.866;2023-12-14T10:50:24;11.18;;;7.45;;
58071;SDS011;60383;46.626;18.866;2023-12-14T10:52:50;10.63;;;7.25;;
58071;SDS011;60383;46.626;18.866;2023-12-14T10:55:27;13.35;;;8.18;;
58071;SDS011;60383;46.626;18.866;2023-12-14T10:57:58;11.40;;;7.28;;
58071;SDS011;60383;46.626;18.866;2023-12-14T11:00:23;12.50;;;8.48;;
58071;SDS011;60383;46.626;18.866;2023-12-14T11:02:49;10.80;;;8.00;;
58071;SDS011;60383;46.626;18.866;2023-12-14T11:05:17;12.63;;;9.18;;
58071;SDS011;60383;46.626;18.866;2023-12-14T11:10:20;10.48;;;8.05;;
58071;SDS011;60383;46.626;18.866;2023-12-14T11:12:52;10.77;;;8.40;;
58071;SDS011;60383;46.626;18.866;2023-12-14T11:15:22;9.38;;;6.95;;
58071;SDS011;60383;46.626;18.866;2023-12-14T11:20:46;8.35;;;6.35;;
58071;SDS011;60383;46.626;18.866;2023-12-14T11:25:55;9.98;;;7.50;;
58071;SDS011;60383;46.626;18.866;2023-12-14T11:28:23;11.73;;;8.52;;
58071;SDS011;60383;46.626;18.866;2023-12-14T11:30:48;12.23;;;7.70;;
58071;SDS011;60383;46.626;18.866;2023-12-14T11:33:14;11.27;;;7.22;;
58071;SDS011;60383;46.626;18.866;2023-12-14T11:35:41;10.65;;;7.32;;
58071;SDS011;60383;46.626;18.866;2023-12-14T11:38:07;8.93;;;7.10;;
58071;SDS011;60383;46.626;18.866;2023-12-14T11:43:09;10.93;;;7.75;;
58071;SDS011;60383;46.626;18.866;2023-12-14T11:45:39;13.05;;;8.38;;
58071;SDS011;60383;46.626;18.866;2023-12-14T11:48:09;10.07;;;7.20;;
58071;SDS011;60383;46.626;18.866;2023-12-14T11:50:37;9.52;;;7.40;;
58071;SDS011;60383;46.626;18.866;2023-12-14T11:53:03;11.45;;;7.45;;
58071;SDS011;60383;46.626;18.866;2023-12-14T11:55:30;8.07;;;5.70;;
58071;SDS011;60383;46.626;18.866;2023-12-14T11:57:56;8.13;;;5.68;;
58071;SDS011;60383;46.626;18.866;2023-12-14T12:00:23;8.70;;;5.97;;
58071;SDS011;60383;46.626;18.866;2023-12-14T12:02:50;8.10;;;6.00;;
58071;SDS011;60383;46.626;18.866;2023-12-14T12:05:16;7.95;;;6.53;;
58071;SDS011;60383;46.626;18.866;2023-12-14T12:07:44;8.98;;;6.68;;
58071;SDS011;60383;46.626;18.866;2023-12-14T12:10:10;8.48;;;6.65;;
58071;SDS011;60383;46.626;18.866;2023-12-14T12:12:36;7.53;;;5.55;;
58071;SDS011;60383;46.626;18.866;2023-12-14T12:15:02;7.28;;;5.22;;
58071;SDS011;60383;46.626;18.866;2023-12-14T12:17:28;8.93;;;5.90;;
58071;SDS011;60383;46.626;18.866;2023-12-14T12:19:53;7.85;;;5.93;;
58071;SDS011;60383;46.626;18.866;2023-12-14T12:22:19;8.05;;;5.60;;
58071;SDS011;60383;46.626;18.866;2023-12-14T12:24:44;8.48;;;5.40;;
58071;SDS011;60383;46.626;18.866;2023-12-14T12:27:10;9.88;;;6.30;;
58071;SDS011;60383;46.626;18.866;2023-12-14T12:29:35;8.15;;;5.82;;
58071;SDS011;60383;46.626;18.866;2023-12-14T12:32:00;9.18;;;6.15;;
58071;SDS011;60383;46.626;18.866;2023-12-14T12:34:26;11.13;;;7.10;;
58071;SDS011;60383;46.626;18.866;2023-12-14T12:36:51;14.45;;;7.82;;
58071;SDS011;60383;46.626;18.866;2023-12-14T12:39:17;12.07;;;7.20;;
58071;SDS011;60383;46.626;18.866;2023-12-14T12:41:42;11.50;;;6.88;;
58071;SDS011;60383;46.626;18.866;2023-12-14T12:44:08;8.35;;;6.03;;
58071;SDS011;60383;46.626;18.866;2023-12-14T12:46:36;7.90;;;6.20;;
58071;SDS011;60383;46.626;18.866;2023-12-14T12:49:03;8.82;;;6.00;;
58071;SDS011;60383;46.626;18.866;2023-12-14T12:51:30;9.13;;;5.22;;
58071;SDS011;60383;46.626;18.866;2023-12-14T12:53:59;7.90;;;5.32;;
58071;SDS011;60383;46.626;18.866;2023-12-14T12:56:25;8.25;;;5.88;;
58071;SDS011;60383;46.626;18.866;2023-12-14T12:58:52;8.43;;;5.25;;
58071;SDS011;60383;46.626;18.866;2023-12-14T13:01:19;8.40;;;6.25;;
58071;SDS011;60383;46.626;18.866;2023-12-14T13:03:52;9.85;;;5.70;;
58071;SDS011;60383;46.626;18.866;2023-12-14T13:06:19;7.55;;;5.38;;
58071;SDS011;60383;46.626;18.866;2023-12-14T13:08:46;11.65;;;6.03;;
58071;SDS011;60383;46.626;18.866;2023-12-14T13:11:11;10.20;;;6.28;;
58071;SDS011;60383;46.626;18.866;2023-12-14T13:13:36;7.85;;;5.68;;
58071;SDS011;60383;46.626;18.866;2023-12-14T13:16:02;8.32;;;5.90;;
58071;SDS011;60383;46.626;18.866;2023-12-14T13:18:30;7.55;;;5.47;;
58071;SDS011;60383;46.626;18.866;2023-12-14T13:20:55;8.73;;;5.38;;
58071;SDS011;60383;46.626;18.866;2023-12-14T13:23:22;9.93;;;5.93;;
58071;SDS011;60383;46.626;18.866;2023-12-14T13:25:48;10.57;;;6.85;;
58071;SDS011;60383;46.626;18.866;2023-12-14T13:28:13;9.00;;;5.82;;
58071;SDS011;60383;46.626;18.866;2023-12-14T13:30:39;9.05;;;5.97;;
58071;SDS011;60383;46.626;18.866;2023-12-14T13:33:05;7.85;;;5.57;;
58071;SDS011;60383;46.626;18.866;2023-12-14T13:35:31;8.98;;;5.32;;
58071;SDS011;60383;46.626;18.866;2023-12-14T13:37:57;7.65;;;5.70;;
58071;SDS011;60383;46.626;18.866;2023-12-14T13:40:22;9.13;;;5.72;;
58071;SDS011;60383;46.626;18.866;2023-12-14T13:42:48;7.40;;;5.10;;
58071;SDS011;60383;46.626;18.866;2023-12-14T13:45:14;6.93;;;5.35;;
58071;SDS011;60383;46.626;18.866;2023-12-14T13:47:39;9.55;;;6.47;;
58071;SDS011;60383;46.626;18.866;2023-12-14T13:50:05;9.07;;;6.38;;
58071;SDS011;60383;46.626;18.866;2023-12-14T13:52:31;9.55;;;6.25;;
58071;SDS011;60383;46.626;18.866;2023-12-14T13:54:56;9.75;;;6.22;;
58071;SDS011;60383;46.626;18.866;2023-12-14T13:57:24;11.23;;;7.32;;
58071;SDS011;60383;46.626;18.866;2023-12-14T13:59:49;13.23;;;7.80;;
58071;SDS011;60383;46.626;18.866;2023-12-14T14:02:15;13.30;;;8.23;;
58071;SDS011;60383;46.626;18.866;2023-12-14T14:04:40;13.63;;;9.25;;
58071;SDS011;60383;46.626;18.866;2023-12-14T14:07:06;15.43;;;9.68;;
58071;SDS011;60383;46.626;18.866;2023-12-14T14:09:31;14.35;;;8.85;;
58071;SDS011;60383;46.626;18.866;2023-12-14T14:11:58;14.15;;;8.38;;
58071;SDS011;60383;46.626;18.866;2023-12-14T14:14:23;12.55;;;7.60;;
58071;SDS011;60383;46.626;18.866;2023-12-14T14:16:49;10.25;;;7.32;;
58071;SDS011;60383;46.626;18.866;2023-12-14T14:19:14;12.23;;;7.88;;
58071;SDS011;60383;46.626;18.866;2023-12-14T14:21:40;13.20;;;8.15;;
58071;SDS011;60383;46.626;18.866;2023-12-14T14:24:06;13.98;;;8.98;;
58071;SDS011;60383;46.626;18.866;2023-12-14T14:26:31;10.98;;;7.63;;